Melbourne, FL

8:06 PM EST on December 09, 2016 (GMT -0500)
Melbourne International | | Change Station

Elev 33 ft 28.10 °N, 80.65 °W | Updated 13 minutes ago

Clear
Clear
60 °F
Feels Like 60 °F
N
13
Wind Variable Wind from North

Today
High -- | Low -- °F
--% Chance of Precip.
Yesterday
High -- | Low -- °F
Precip. -- in
Pressure 30.28 in
Visibility 10.0 miles
Clouds Clear
Dew Point 51 °F
Humidity 72%
Rainfall 0.02 in
Snow Depth Not available.
7:03 AM 5:27 PM
Waxing Gibbous, 79% visible
METAR KMLB 100053Z 35011KT 10SM CLR 16/11 A3028 RMK AO2 SLP253 T01560106
Pressure 30.28 in
Visibility 10.0 miles
Clouds Clear
Dew Point 51 °F
Humidity 72%
Rainfall 0.02 in
Snow Depth Not available.
7:03 AM 5:27 PM
Waxing Gibbous, 79% visible
METAR KMLB 100053Z 35011KT 10SM CLR 16/11 A3028 RMK AO2 SLP253 T01560106

10-Day Weather Forecast

Almanac

Astronomy

Dec. 09, 2016 Rise Set
Actual Time
Civil Twilight
Nautical Twilight
Astronomical Twilight
Moon
Length of Visible Light
Length of Day
Tomorrow will be .
, % of the Moon is Illuminated

Today's Extremes

State Highs State Lows

Community

WunderPhotos

Upload Photos

1,956,534 photos uploaded!

WunderBlog® & News

Nearby

Air Quality

  Air Quality AQ Index Pollutant
Not available.

Snow Depth

Station Depth Elevation

Earthquake Activity

City Distance Mag. Time & Date
Minimum magnitude displayed is 2.5.

Coastal Water Temperatures

Place Temperature

Stations

Nearby Weather Stations

Station Location Temp. Windchill Dew Point Humidity Wind Precip. Elev Updated Type
                   

Watches & Warnings

There are currently no watches in effect.